< < Back
Terminal Aerodrome Forecast


Current Version              Previous Versions:   1  2  3  4  5  6  7  8  9  

Terminal Aerodrome Forecast

655
FTUS44 KMOB 061122
TAFMOB
TAF
KMOB 061122Z 0612/0712 06005KT P6SM SKC
     FM062000 15011KT P6SM VCTS SCT040CB
     FM070000 15005KT P6SM SKC=

Latest METAR

189
SAUS80 KWBC 061200 RRA
MTRMOB
METAR KMOB 061156Z 06007KT 10SM FEW060 FEW200 18/17 A3012 RMK AO2 SLP196
T01780167 10178 20167 53006


USA.gov is the U.S. government's official web portal to all federal, state and local government web resources and services.